Time;durP1;ratioP1;P1;durP2;ratioP2;P2;SDS_P1;SDS_P2;PMS_P1;PMS_P2;Temp;Humidity;BMP_temperature;BMP_pressure;BME280_temperature;BME280_humidity;BME280_pressure;Samples;Min_cycle;Max_cycle;Signal;HPM_P1;HPM_P2
2022/02/19 00:02:02;;;;;;;25.38;15.35;;;;;;;3.59;100.00;100369.91;4953822;29;20130;-63
2022/02/19 00:04:27;;;;;;;26.40;13.68;;;;;;;4.20;100.00;100500.19;4955072;28;20027;-63
2022/02/19 00:06:53;;;;;;;28.33;14.00;;;;;;;3.80;100.00;100427.00;4955166;28;20040;-63
2022/02/19 00:09:18;;;;;;;27.83;14.15;;;;;;;3.96;100.00;100458.97;4954999;28;20441;-64
2022/02/19 00:11:44;;;;;;;16.45;9.18;;;;;;;3.48;100.00;100490.47;4953681;28;20118;-62
2022/02/19 00:14:09;;;;;;;11.00;6.30;;;;;;;3.83;100.00;100480.66;4954897;28;20055;-62
2022/02/19 00:16:36;;;;;;;11.25;5.38;;;;;;;3.10;100.00;100446.56;4969739;28;20114;-63
2022/02/19 00:19:03;;;;;;;14.90;8.35;;;;;;;3.71;100.00;100462.97;4953355;28;20070;-63
2022/02/19 00:21:28;;;;;;;20.17;11.10;;;;;;;3.69;100.00;100496.47;4954678;28;20039;-62
2022/02/19 00:23:53;;;;;;;26.95;13.55;;;;;;;3.59;100.00;100485.50;4954889;28;20046;-62
2022/02/19 00:26:19;;;;;;;17.58;9.05;;;;;;;3.84;100.00;100499.13;4954600;28;20065;-62
2022/02/19 00:28:44;;;;;;;15.15;8.65;;;;;;;3.79;100.00;100480.63;4953480;28;20027;-62
2022/02/19 00:31:10;;;;;;;12.48;7.63;;;;;;;3.96;100.00;100515.13;4953320;28;20098;-62
2022/02/19 00:33:35;;;;;;;18.48;10.02;;;;;;;3.61;100.00;100462.88;4954534;28;20032;-63
2022/02/19 00:36:01;;;;;;;23.40;13.10;;;;;;;3.67;100.00;100483.03;4954347;28;20036;-62
2022/02/19 00:38:26;;;;;;;27.10;14.15;;;;;;;3.76;100.00;100486.50;4954748;28;20405;-62
2022/02/19 00:40:52;;;;;;;21.55;12.38;;;;;;;3.55;100.00;100463.69;4953162;28;20193;-63
2022/02/19 00:43:17;;;;;;;25.38;13.55;;;;;;;3.91;100.00;100510.88;4954519;28;20031;-62
2022/02/19 00:45:43;;;;;;;20.05;13.23;;;;;;;4.11;100.00;100515.25;4953101;29;20414;-62
2022/02/19 00:48:09;;;;;;;25.80;14.20;;;;;;;3.83;100.00;100452.16;4954244;28;20519;-64
2022/02/19 00:50:35;;;;;;;22.45;13.65;;;;;;;3.94;100.00;100474.03;4954179;28;20038;-62
2022/02/19 00:53:01;;;;;;;19.45;12.77;;;;;;;3.65;100.00;100442.81;4953084;28;20031;-62
2022/02/19 00:55:27;;;;;;;20.75;12.65;;;;;;;2.83;100.00;100393.56;4954221;28;20525;-62
2022/02/19 00:57:53;;;;;;;20.60;11.85;;;;;;;3.74;100.00;100432.84;4954233;28;20058;-62
2022/02/19 01:02:53;;;;;;;19.98;10.98;;;;;;;4.31;100.00;100500.25;4579338;23;9999880;-67
2022/02/19 01:05:19;;;;;;;20.50;10.95;;;;;;;3.53;100.00;100483.78;4916341;29;20036;-68
2022/02/19 01:07:44;;;;;;;21.63;11.35;;;;;;;3.41;100.00;100496.25;4916193;29;20032;-66
2022/02/19 01:10:10;;;;;;;19.40;10.77;;;;;;;3.88;100.00;100495.78;4915872;29;20059;-67
2022/02/19 01:12:36;;;;;;;44.65;19.25;;;;;;;4.19;100.00;100493.50;4914921;29;20043;-67
2022/02/19 01:15:06;;;;;;;25.58;13.27;;;;;;;2.65;100.00;100498.78;4915715;29;20466;-68
2022/02/19 01:17:31;;;;;;;22.10;11.60;;;;;;;3.27;100.00;100485.22;4916083;29;20482;-68
2022/02/19 01:19:57;;;;;;;17.10;8.45;;;;;;;2.89;100.00;100468.94;4915906;29;20032;-67
2022/02/19 01:22:22;;;;;;;54.20;23.95;;;;;;;3.02;100.00;100495.00;4915909;29;20065;-67
2022/02/19 01:24:48;;;;;;;52.72;24.52;;;;;;;3.04;100.00;100506.75;4915731;29;20028;-67
2022/02/19 01:27:14;;;;;;;21.73;10.68;;;;;;;3.03;100.00;100491.69;4915754;29;20036;-68
2022/02/19 01:29:40;;;;;;;26.40;12.15;;;;;;;2.47;100.00;100464.28;4915232;29;20395;-67
2022/02/19 01:32:06;;;;;;;13.75;7.38;;;;;;;2.92;100.00;100521.69;4930165;29;20087;-67
2022/02/19 01:34:31;;;;;;;12.65;6.97;;;;;;;3.07;100.00;100474.13;4914276;29;20549;-67
2022/02/19 01:36:57;;;;;;;15.20;7.80;;;;;;;2.31;100.00;100456.53;4915441;29;20498;-67
2022/02/19 01:39:24;;;;;;;13.75;8.38;;;;;;;3.17;100.00;100483.44;4915651;29;20032;-68
2022/02/19 01:41:49;;;;;;;14.13;8.68;;;;;;;3.26;100.00;100483.56;4907310;29;20041;-68
2022/02/19 01:44:15;;;;;;;15.20;8.38;;;;;;;3.26;100.00;100493.59;4898512;29;20054;-68
2022/02/19 01:46:41;;;;;;;15.55;7.82;;;;;;;3.45;100.00;100509.66;4915203;29;20405;-67
2022/02/19 01:49:07;;;;;;;15.52;8.45;;;;;;;3.69;100.00;100517.44;4915198;29;20032;-67
2022/02/19 01:51:34;;;;;;;14.52;8.55;;;;;;;3.00;100.00;100484.97;4914982;29;20419;-68
2022/02/19 01:54:07;;;;;;;14.55;8.45;;;;;;;2.86;100.00;100478.94;4903494;29;20106;-68
2022/02/19 01:56:36;;;;;;;15.80;9.30;;;;;;;3.19;100.00;100484.31;4910713;29;20040;-68
2022/02/19 01:59:07;;;;;;;16.05;9.02;;;;;;;2.70;100.00;100467.03;4895813;29;20089;-67
2022/02/19 02:01:33;;;;;;;16.05;8.27;;;;;;;2.87;100.00;100468.09;4896515;29;20115;-67
2022/02/19 02:03:59;;;;;;;16.80;9.00;;;;;;;3.10;100.00;100454.09;4895954;29;20574;-67
2022/02/19 02:06:25;;;;;;;16.25;9.05;;;;;;;3.15;100.00;100495.16;4910840;29;20111;-67
2022/02/19 02:08:51;;;;;;;14.15;9.50;;;;;;;2.74;100.00;100465.41;4910564;29;20059;-67
2022/02/19 02:11:16;;;;;;;17.70;9.68;;;;;;;3.48;100.00;100503.03;4895693;29;20499;-66
2022/02/19 02:13:42;;;;;;;18.10;10.00;;;;;;;3.39;100.00;100500.41;4895790;29;20071;-67
2022/02/19 02:16:08;;;;;;;16.02;9.43;;;;;;;2.34;100.00;100436.50;4896464;29;20032;-67
2022/02/19 02:18:34;;;;;;;20.80;10.18;;;;;;;2.56;100.00;100450.97;4895760;29;20084;-67
2022/02/19 02:20:59;;;;;;;19.75;11.10;;;;;;;2.86;100.00;100481.44;4896132;29;20028;-67
2022/02/19 02:23:26;;;;;;;25.02;13.05;;;;;;;2.89;100.00;100468.94;4895272;29;20028;-67
2022/02/19 02:25:55;;;;;;;26.85;13.68;;;;;;;2.85;100.00;100478.94;4919337;29;20039;-68
2022/02/19 02:28:21;;;;;;;22.83;13.30;;;;;;;2.99;100.00;100510.06;4895612;29;20075;-67
2022/02/19 02:30:47;;;;;;;31.98;18.88;;;;;;;2.57;100.00;100441.00;4902949;29;20055;-67
2022/02/19 02:33:18;;;;;;;34.85;20.20;;;;;;;2.55;100.00;100502.00;4914503;29;20103;-67
2022/02/19 02:35:43;;;;;;;24.80;14.95;;;;;;;2.79;100.00;100511.50;4914525;29;20120;-67
2022/02/19 02:38:09;;;;;;;27.88;16.45;;;;;;;3.09;100.00;100515.16;4914611;29;20115;-66
2022/02/19 02:40:36;;;;;;;33.67;19.80;;;;;;;2.64;100.00;100441.88;4914289;29;20514;-67
2022/02/19 02:43:03;;;;;;;42.78;25.08;;;;;;;3.04;100.00;100505.91;4914548;29;20099;-67
2022/02/19 02:45:29;;;;;;;32.40;17.45;;;;;;;2.80;100.00;100501.47;4914308;29;20032;-65
2022/02/19 02:47:54;;;;;;;28.20;16.83;;;;;;;2.84;100.00;100509.88;4914608;29;20034;-67
2022/02/19 02:50:20;;;;;;;22.70;14.35;;;;;;;2.19;100.00;100432.16;4914565;29;20028;-67
2022/02/19 02:52:45;;;;;;;26.75;14.95;;;;;;;2.44;100.00;100470.91;4914130;29;20569;-67
2022/02/19 02:55:12;;;;;;;31.92;17.52;;;;;;;2.37;100.00;100434.03;4914125;29;20391;-67
2022/02/19 02:57:38;;;;;;;21.63;13.90;;;;;;;2.30;100.00;100510.00;4914373;29;20494;-67
2022/02/19 03:00:06;;;;;;;22.30;13.15;;;;;;;2.25;100.00;100521.66;4914307;29;20071;-68
2022/02/19 03:02:34;;;;;;;21.88;12.52;;;;;;;2.04;100.00;100449.47;4914560;29;20056;-66
2022/02/19 03:05:01;;;;;;;24.23;12.82;;;;;;;2.30;100.00;100530.06;4914576;29;20123;-67
2022/02/19 03:07:26;;;;;;;23.05;12.05;;;;;;;2.31;100.00;100534.28;4929103;29;20430;-67
2022/02/19 03:09:52;;;;;;;26.77;13.07;;;;;;;2.29;100.00;100488.28;4914244;29;20028;-67
2022/02/19 03:12:17;;;;;;;23.90;13.15;;;;;;;2.31;100.00;100500.03;4914381;29;20119;-67
2022/02/19 03:14:43;;;;;;;21.63;12.32;;;;;;;1.96;100.00;100512.88;4914107;29;20036;-68
2022/02/19 03:17:08;;;;;;;22.35;12.02;;;;;;;2.44;100.00;100516.06;4914098;29;20626;-67
2022/02/19 03:19:34;;;;;;;23.02;11.40;;;;;;;2.37;100.00;100486.72;4896236;29;20435;-67
2022/02/19 03:21:59;;;;;;;23.98;11.10;;;;;;;2.19;100.00;100560.03;4895068;29;20028;-67
2022/02/19 03:24:24;;;;;;;19.73;10.38;;;;;;;2.18;100.00;100494.81;4913092;29;20467;-67
2022/02/19 03:26:50;;;;;;;20.77;10.40;;;;;;;2.45;100.00;100553.72;4916676;29;20064;-67
2022/02/19 03:29:15;;;;;;;19.15;10.63;;;;;;;2.94;100.00;100550.16;4914037;29;20446;-66
2022/02/19 03:31:41;;;;;;;19.85;11.10;;;;;;;2.37;100.00;100511.78;4914254;29;20038;-67
2022/02/19 03:34:06;;;;;;;16.15;9.20;;;;;;;2.31;100.00;100504.19;4914231;29;20036;-67
2022/02/19 03:36:32;;;;;;;14.35;7.18;;;;;;;2.56;100.00;100513.72;4916917;29;20028;-66
2022/02/19 03:38:57;;;;;;;12.15;6.97;;;;;;;3.06;100.00;100537.75;4916460;29;20517;-66
2022/02/19 03:41:23;;;;;;;16.70;7.70;;;;;;;2.64;100.00;100520.50;4917523;29;20558;-66
2022/02/19 03:43:48;;;;;;;17.20;10.15;;;;;;;2.69;100.00;100557.38;4910068;29;20028;-66
2022/02/19 03:46:14;;;;;;;24.67;12.80;;;;;;;2.46;100.00;100545.38;4898739;29;20423;-66
2022/02/19 03:48:39;;;;;;;19.27;9.73;;;;;;;2.18;100.00;100560.00;4898509;29;20447;-66
2022/02/19 03:51:05;;;;;;;14.25;8.35;;;;;;;1.77;100.00;100549.31;4898333;29;20491;-66
2022/02/19 03:53:31;;;;;;;12.63;6.65;;;;;;;1.81;100.00;100517.63;4898676;29;20084;-66
2022/02/19 03:55:56;;;;;;;10.27;5.57;;;;;;;1.75;100.00;100510.88;4898715;29;20055;-66
2022/02/19 03:58:22;;;;;;;10.43;5.15;;;;;;;2.35;100.00;100529.34;4898423;29;20096;-66
2022/02/19 04:00:47;;;;;;;8.32;4.78;;;;;;;1.58;100.00;100530.66;4922821;29;20082;-66
2022/02/19 04:03:13;;;;;;;9.63;5.72;;;;;;;2.39;100.00;100532.72;4897971;29;20063;-66
2022/02/19 04:05:38;;;;;;;10.77;6.53;;;;;;;1.66;100.00;100516.56;4898119;29;20491;-66
2022/02/19 04:08:05;;;;;;;11.65;6.20;;;;;;;1.88;100.00;100552.88;4898123;29;20116;-67
2022/02/19 04:10:31;;;;;;;8.95;5.75;;;;;;;1.56;100.00;100537.31;4898414;29;20116;-66
2022/02/19 04:12:56;;;;;;;10.32;5.70;;;;;;;1.63;100.00;100534.06;4898248;29;20135;-67
2022/02/19 04:15:22;;;;;;;9.18;5.78;;;;;;;1.82;100.00;100534.38;4898505;29;20116;-68
2022/02/19 04:17:47;;;;;;;9.68;5.38;;;;;;;2.00;100.00;100549.69;4898352;29;20040;-67
2022/02/19 04:20:13;;;;;;;10.98;6.60;;;;;;;1.78;100.00;100513.44;4897932;29;20539;-67
2022/02/19 04:22:41;;;;;;;11.20;6.60;;;;;;;1.99;100.00;100545.50;4897711;29;20032;-66
2022/02/19 04:25:08;;;;;;;15.95;8.90;;;;;;;1.57;100.00;100491.38;4912482;29;20040;-67
2022/02/19 04:27:34;;;;;;;13.48;7.22;;;;;;;2.14;100.00;100546.56;4897807;29;20104;-67
2022/02/19 04:29:59;;;;;;;15.18;7.43;;;;;;;1.89;100.00;100554.53;4898023;29;20479;-66
2022/02/19 04:32:25;;;;;;;25.70;11.90;;;;;;;1.97;100.00;100532.09;4897888;29;20044;-66
2022/02/19 04:34:50;;;;;;;24.40;11.88;;;;;;;1.88;100.00;100549.50;4920670;29;20501;-66
2022/02/19 04:37:16;;;;;;;23.80;12.98;;;;;;;1.72;100.00;100544.22;4905802;29;20028;-67
2022/02/19 04:39:41;;;;;;;25.50;14.77;;;;;;;2.12;100.00;100545.69;4897728;29;20039;-67
2022/02/19 04:42:07;;;;;;;31.08;17.30;;;;;;;1.61;100.00;100502.28;4911929;29;20060;-66
2022/02/19 04:44:34;;;;;;;27.00;15.57;;;;;;;2.13;100.00;100514.81;4897978;29;20047;-66
2022/02/19 04:46:59;;;;;;;27.58;15.00;;;;;;;1.85;100.00;100526.88;4897233;29;20032;-67
2022/02/19 04:49:25;;;;;;;23.45;12.20;;;;;;;1.99;100.00;100565.53;4897447;29;20607;-67
2022/02/19 04:51:50;;;;;;;20.35;11.85;;;;;;;2.12;100.00;100557.41;4911744;29;20044;-66
2022/02/19 04:54:16;;;;;;;26.02;14.05;;;;;;;2.29;100.00;100569.38;4897509;29;20480;-66
2022/02/19 04:56:42;;;;;;;29.55;15.70;;;;;;;1.69;100.00;100533.31;4897474;29;20083;-66
2022/02/19 04:59:08;;;;;;;49.35;27.85;;;;;;;1.96;100.00;100563.00;4911808;29;20048;-67
2022/02/19 05:01:33;;;;;;;52.65;30.55;;;;;;;1.75;100.00;100574.38;4897398;29;20041;-66
2022/02/19 05:03:58;;;;;;;39.80;25.23;;;;;;;1.33;100.00;100543.56;4911387;29;20238;-67
2022/02/19 05:06:24;;;;;;;27.73;15.55;;;;;;;1.01;100.00;100523.75;4897841;29;20484;-67
2022/02/19 05:08:49;;;;;;;19.50;11.25;;;;;;;1.55;100.00;100577.31;4903626;29;20142;-67
2022/02/19 05:11:15;;;;;;;17.38;10.18;;;;;;;1.20;100.00;100554.16;4897159;29;20036;-66
2022/02/19 05:13:40;;;;;;;16.10;9.60;;;;;;;1.06;100.00;100550.56;4896978;29;20035;-67
2022/02/19 05:16:06;;;;;;;15.40;9.38;;;;;;;0.13;100.00;100534.41;4911498;29;20100;-66
2022/02/19 05:18:31;;;;;;;17.00;8.77;;;;;;;0.76;100.00;100595.81;4896806;29;20514;-67
2022/02/19 05:20:57;;;;;;;18.85;9.65;;;;;;;1.35;100.00;100604.50;4895894;29;20040;-64
2022/02/19 05:23:22;;;;;;;16.90;8.80;;;;;;;0.54;100.00;100605.31;4896060;29;20104;-64
2022/02/19 05:25:49;;;;;;;20.80;9.75;;;;;;;-0.02;100.00;100579.03;4896575;29;20033;-66
2022/02/19 05:28:14;;;;;;;14.63;8.50;;;;;;;-0.49;100.00;100567.88;4896689;29;20059;-64
2022/02/19 05:30:40;;;;;;;10.55;6.57;;;;;;;-0.63;100.00;100618.22;4907953;29;20028;-65
2022/02/19 05:33:06;;;;;;;11.38;6.63;;;;;;;-0.38;100.00;100603.97;4934443;29;20031;-64
2022/02/19 05:35:32;;;;;;;9.63;6.00;;;;;;;-0.35;100.00;100580.69;4934339;29;20119;-65
2022/02/19 05:37:58;;;;;;;10.00;5.70;;;;;;;-0.50;100.00;100571.19;4900990;29;20060;-67
2022/02/19 05:40:23;;;;;;;9.75;5.85;;;;;;;-0.11;100.00;100622.13;4901996;29;20025;-67
2022/02/19 05:42:49;;;;;;;22.30;8.55;;;;;;;-0.19;100.00;100631.06;4914460;29;20044;-67
2022/02/19 05:45:14;;;;;;;15.18;8.10;;;;;;;-0.37;100.00;100598.13;4929155;29;20034;-69
2022/02/19 05:47:39;;;;;;;15.95;7.65;;;;;;;0.99;100.00;100645.50;4908860;29;20033;-69
2022/02/19 05:50:05;;;;;;;20.10;9.80;;;;;;;4.49;100.00;100585.94;4896352;29;20043;-67
2022/02/19 05:52:31;;;;;;;18.05;9.35;;;;;;;5.37;100.00;100597.25;4895722;29;20040;-66
2022/02/19 05:54:56;;;;;;;19.10;9.80;;;;;;;5.15;100.00;100593.00;4899002;29;20436;-68
2022/02/19 05:57:22;;;;;;;16.00;7.50;;;;;;;5.94;93.75;100619.28;4913954;29;20494;-66
2022/02/19 05:59:48;;;;;;;20.00;10.75;;;;;;;7.34;82.56;100610.56;4928798;29;20036;-66
2022/02/19 06:02:14;;;;;;;20.45;11.70;;;;;;;7.37;77.22;100615.63;4928767;29;20578;-66
2022/02/19 06:04:39;;;;;;;21.65;11.88;;;;;;;7.62;72.38;100567.41;4914561;29;20110;-68
2022/02/19 06:07:05;;;;;;;21.35;11.32;;;;;;;7.89;94.52;100617.00;4914282;29;20122;-68
2022/02/19 06:09:30;;;;;;;15.27;8.10;;;;;;;7.74;76.90;100622.97;4914306;29;20039;-68
2022/02/19 06:11:56;;;;;;;15.23;7.97;;;;;;;8.87;67.43;100617.84;4897421;29;20033;-68
2022/02/19 06:14:21;;;;;;;12.30;6.70;;;;;;;8.30;64.73;100589.69;4910182;29;20032;-67
2022/02/19 06:16:47;;;;;;;8.57;5.88;;;;;;;8.68;64.96;100624.78;4895573;29;20079;-66
2022/02/19 06:19:13;;;;;;;10.70;5.53;;;;;;;8.45;67.33;100596.31;4894563;29;20033;-66
2022/02/19 06:21:38;;;;;;;9.63;5.20;;;;;;;7.47;70.58;100591.94;4894005;29;20033;-66
2022/02/19 06:24:04;;;;;;;10.45;4.90;;;;;;;8.17;74.33;100590.63;4909164;29;20039;-66
2022/02/19 06:26:30;;;;;;;11.15;5.53;;;;;;;9.24;70.64;100597.09;4911959;29;20043;-67
2022/02/19 06:28:55;;;;;;;11.75;6.80;;;;;;;8.86;64.55;100595.88;4906933;29;20040;-66
2022/02/19 06:31:21;;;;;;;13.43;7.68;;;;;;;8.75;70.81;100639.09;4893192;29;20032;-66
2022/02/19 06:33:46;;;;;;;19.90;9.85;;;;;;;8.95;65.45;100628.75;4894324;29;20032;-67
2022/02/19 06:36:11;;;;;;;19.50;10.88;;;;;;;8.61;67.75;100596.16;4894293;29;20551;-65
2022/02/19 06:38:39;;;;;;;15.90;9.88;;;;;;;9.41;65.15;100633.25;4894540;29;20067;-64
2022/02/19 06:41:09;;;;;;;14.77;8.50;;;;;;;7.20;78.33;100571.88;4894530;29;20037;-64
2022/02/19 06:43:35;;;;;;;10.63;6.30;;;;;;;7.55;84.27;100638.28;4894736;29;20036;-65
2022/02/19 06:46:01;;;;;;;9.73;5.05;;;;;;;6.24;95.46;100631.88;4894425;29;20036;-65
2022/02/19 06:48:26;;;;;;;10.63;5.15;;;;;;;6.26;100.00;100647.88;4903320;29;20036;-64
2022/02/19 06:50:53;;;;;;;6.80;4.22;;;;;;;5.76;100.00;100604.91;4900658;29;20032;-65
2022/02/19 06:53:19;;;;;;;11.80;5.97;;;;;;;7.57;100.00;100618.88;4909532;29;20028;-65
2022/02/19 06:55:44;;;;;;;36.72;7.80;;;;;;;6.63;100.00;100618.41;4905911;29;20033;-65
2022/02/19 06:58:10;;;;;;;120.03;12.82;;;;;;;6.09;100.00;100587.31;4909145;29;20043;-64
2022/02/19 07:00:35;;;;;;;8.70;5.53;;;;;;;5.73;100.00;100593.97;4900633;29;20411;-65
2022/02/19 07:03:01;;;;;;;10.48;5.60;;;;;;;6.27;100.00;100583.94;4895192;29;20494;-65
2022/02/19 07:05:26;;;;;;;17.42;6.03;;;;;;;6.87;100.00;100621.69;4926718;29;20036;-66
2022/02/19 07:07:51;;;;;;;10.15;5.65;;;;;;;6.76;100.00;100585.50;4914059;29;20087;-65
2022/02/19 07:10:17;;;;;;;10.50;5.60;;;;;;;7.86;100.00;100597.59;4915154;29;20028;-66
2022/02/19 07:12:42;;;;;;;10.23;5.47;;;;;;;6.54;100.00;100604.09;4917066;29;20490;-65
2022/02/19 07:15:09;;;;;;;10.75;6.07;;;;;;;7.79;100.00;100621.28;4917309;29;20034;-65
2022/02/19 07:18:04;;;;;;;10.55;5.80;;;;;;;7.24;100.00;100645.19;4900501;29;20471;-66
2022/02/19 07:20:34;;;;;;;14.82;6.78;;;;;;;8.49;100.00;100631.75;4894275;29;20357;-67
2022/02/19 07:22:59;;;;;;;11.98;5.88;;;;;;;7.83;97.77;100650.78;4913070;29;20047;-67
2022/02/19 07:25:25;;;;;;;8.57;6.05;;;;;;;8.50;97.33;100643.53;4898873;29;20048;-66
2022/02/19 07:27:50;;;;;;;10.75;5.88;;;;;;;8.97;91.48;100643.09;4898881;29;20064;-66
2022/02/19 07:30:18;;;;;;;13.20;4.78;;;;;;;8.46;93.82;100605.56;4896435;29;20036;-66
2022/02/19 07:32:45;;;;;;;7.47;4.50;;;;;;;8.59;92.04;100595.34;4901900;29;20068;-66
2022/02/19 07:35:10;;;;;;;7.88;4.07;;;;;;;7.71;94.78;100592.66;4909723;29;20129;-66
2022/02/19 07:37:37;;;;;;;7.72;4.22;;;;;;;8.98;88.70;100550.09;4898851;29;20207;-66
2022/02/19 07:40:04;;;;;;;9.15;4.18;;;;;;;9.50;84.88;100584.94;4898392;29;20040;-66
2022/02/19 07:42:30;;;;;;;6.07;4.10;;;;;;;8.96;85.44;100561.94;4897475;29;20103;-66
2022/02/19 07:44:56;;;;;;;9.95;4.32;;;;;;;9.94;85.31;100612.22;4897254;29;20033;-66
2022/02/19 07:47:39;;;;;;;8.27;3.63;;;;;;;9.42;80.74;100583.34;4912573;29;20038;-66
2022/02/19 07:58:20;;;;;;;9.48;4.47;;;;;;;9.08;83.57;100572.78;4917236;29;20062;-66
2022/02/19 08:00:49;;;;;;;10.18;4.30;;;;;;;10.39;78.96;100613.19;4917438;29;20039;-66
2022/02/19 08:03:15;;;;;;;7.65;4.25;;;;;;;10.35;73.83;100568.38;4917082;29;20211;-67
2022/02/19 08:05:42;;;;;;;9.63;3.92;;;;;;;10.37;76.34;100612.38;4906177;29;20033;-67
2022/02/19 08:08:08;;;;;;;9.65;4.93;;;;;;;9.97;77.24;100604.53;4898294;29;20043;-66
2022/02/19 08:10:33;;;;;;;10.25;3.88;;;;;;;10.70;76.08;100591.44;4912771;29;20420;-67
2022/02/19 08:12:59;;;;;;;10.60;4.32;;;;;;;10.99;72.60;100585.81;4912643;29;20049;-66
2022/02/19 08:15:24;;;;;;;9.07;4.75;;;;;;;11.00;72.85;100592.56;4898327;29;20056;-67
2022/02/19 08:17:50;;;;;;;7.63;4.47;;;;;;;10.99;68.15;100540.81;4912334;29;20059;-66
2022/02/19 08:20:15;;;;;;;12.02;5.85;;;;;;;10.14;74.22;100556.84;4897644;29;20570;-66
2022/02/19 08:22:41;;;;;;;47.08;5.30;;;;;;;11.18;66.84;100598.13;4911988;29;20096;-67
2022/02/19 08:25:07;;;;;;;7.88;4.30;;;;;;;11.37;67.22;100559.56;4898147;29;20032;-67
2022/02/19 08:27:38;;;;;;;10.85;4.13;;;;;;;11.21;65.11;100564.97;4912328;29;20051;-67
2022/02/19 08:30:04;;;;;;;6.70;3.50;;;;;;;11.47;63.97;100594.13;4898001;29;20040;-67
2022/02/19 08:32:30;;;;;;;14.30;5.50;;;;;;;11.35;60.99;100600.28;4897727;29;20570;-67
2022/02/19 08:34:57;;;;;;;10.00;4.07;;;;;;;11.87;58.26;100590.66;4911942;29;20033;-67
2022/02/19 08:37:23;;;;;;;10.43;3.50;;;;;;;11.86;57.41;100558.44;4897683;29;20033;-67
2022/02/19 08:39:48;;;;;;;95.97;29.35;;;;;;;12.08;59.22;100563.84;4912084;29;20120;-67
2022/02/19 08:42:14;;;;;;;20.27;7.97;;;;;;;11.87;55.19;100579.63;4897754;29;20033;-67
2022/02/19 08:44:39;;;;;;;14.02;6.47;;;;;;;11.66;53.90;100603.06;4897864;29;20033;-67
2022/02/19 08:47:04;;;;;;;79.95;26.13;;;;;;;11.33;55.35;100605.44;4897750;29;20036;-69
2022/02/19 08:49:31;;;;;;;16.85;8.00;;;;;;;11.20;59.27;100581.13;4911777;29;20040;-68
2022/02/19 08:51:56;;;;;;;14.00;7.55;;;;;;;11.67;56.56;100605.56;4912058;29;20035;-68
2022/02/19 08:54:22;;;;;;;16.48;8.07;;;;;;;11.69;53.06;100601.28;4911834;29;20044;-68
2022/02/19 08:56:50;;;;;;;20.75;7.85;;;;;;;11.21;52.27;100602.31;4897691;29;20047;-68
2022/02/19 08:59:15;;;;;;;16.45;7.30;;;;;;;11.30;51.58;100602.97;4912146;29;20119;-67
2022/02/19 09:01:41;;;;;;;17.90;8.82;;;;;;;11.87;50.69;100595.78;4897186;29;20037;-68
2022/02/19 09:04:07;;;;;;;22.05;9.20;;;;;;;11.55;52.40;100592.25;4911402;29;20423;-68
2022/02/19 09:06:33;;;;;;;142.57;46.78;;;;;;;11.96;51.64;100595.53;4897399;29;20063;-68
2022/02/19 09:08:59;;;;;;;14.93;7.05;;;;;;;11.72;51.20;100564.72;4911997;29;20068;-68
2022/02/19 09:11:25;;;;;;;73.95;26.30;;;;;;;12.63;50.78;100581.13;4896898;29;20055;-69
2022/02/19 09:13:54;;;;;;;11.07;5.53;;;;;;;12.10;51.56;100587.59;4897056;29;20032;-68
2022/02/19 09:16:21;;;;;;;14.45;7.28;;;;;;;12.68;50.17;100572.44;4897086;29;20033;-68
2022/02/19 09:18:46;;;;;;;41.17;16.30;;;;;;;11.87;50.31;100513.41;4896739;29;20029;-69
2022/02/19 09:21:12;;;;;;;12.15;5.47;;;;;;;12.16;50.40;100582.34;4897162;29;20119;-69
2022/02/19 09:23:38;;;;;;;11.57;4.25;;;;;;;12.89;51.06;100579.50;4911383;29;20049;-69
2022/02/19 09:26:03;;;;;;;8.63;3.90;;;;;;;12.96;50.37;100568.25;4896636;29;20040;-69
2022/02/19 09:28:29;;;;;;;11.02;3.42;;;;;;;12.29;51.07;100529.31;4911492;29;20032;-68
2022/02/19 09:30:56;;;;;;;5.95;2.67;;;;;;;13.47;50.46;100565.94;4911181;29;20044;-69
2022/02/19 09:33:22;;;;;;;12.05;3.20;;;;;;;13.21;50.31;100560.75;4895558;29;20028;-68
2022/02/19 09:35:47;;;;;;;9.25;3.20;;;;;;;13.07;49.91;100560.34;4896668;29;20095;-69
2022/02/19 09:38:12;;;;;;;10.85;4.78;;;;;;;13.03;50.43;100544.25;4911161;29;20119;-68
2022/02/19 09:40:38;;;;;;;11.68;3.75;;;;;;;13.60;50.63;100574.91;4896676;29;20092;-69
2022/02/19 09:43:03;;;;;;;22.45;14.93;;;;;;;13.21;49.21;100547.19;4910868;29;20563;-68
2022/02/19 09:45:29;;;;;;;8.25;4.20;;;;;;;13.22;49.48;100582.88;4896304;29;20496;-68
2022/02/19 09:47:58;;;;;;;11.95;3.17;;;;;;;13.25;50.40;100564.88;4896181;29;20024;-69
2022/02/19 09:50:27;;;;;;;8.40;3.45;;;;;;;13.81;49.12;100588.72;4908221;29;20040;-68
2022/02/19 09:52:53;;;;;;;11.80;4.90;;;;;;;13.15;49.28;100545.66;4915403;29;20565;-69
2022/02/19 09:55:18;;;;;;;7.40;4.22;;;;;;;12.60;50.37;100514.84;4930037;29;20069;-68
2022/02/19 09:57:43;;;;;;;8.68;3.40;;;;;;;13.76;51.90;100540.34;4915552;29;20024;-69
2022/02/19 16:02:35;;;;;;;32.42;19.63;;;;;;;13.34;63.60;100254.78;5067512;28;20980;-66
2022/02/19 16:05:01;;;;;;;56.92;23.73;;;;;;;12.99;61.90;100250.88;5067693;28;20043;-67
2022/02/19 16:07:26;;;;;;;44.97;28.45;;;;;;;13.19;62.08;100288.53;5067724;28;20040;-66
2022/02/19 16:09:52;;;;;;;59.25;35.33;;;;;;;12.90;62.73;100286.88;5057357;28;20043;-65
2022/02/19 16:12:17;;;;;;;62.08;36.15;;;;;;;13.04;62.26;100289.84;5046803;28;20509;-65
2022/02/19 16:14:42;;;;;;;68.07;40.67;;;;;;;12.93;64.05;100281.69;5061901;28;20465;-65
2022/02/19 16:17:09;;;;;;;84.07;50.72;;;;;;;12.94;64.32;100284.19;5066921;28;20029;-66
2022/02/19 16:19:35;;;;;;;78.97;49.38;;;;;;;12.90;64.75;100281.78;5067309;28;20078;-66
2022/02/19 16:22:00;;;;;;;107.68;65.25;;;;;;;13.01;66.54;100315.47;5067101;28;20044;-64
2022/02/19 16:24:26;;;;;;;156.70;102.15;;;;;;;13.03;67.77;100314.53;5067023;28;20025;-65
2022/02/19 16:26:51;;;;;;;134.55;84.35;;;;;;;12.45;70.17;100270.47;5067223;28;20120;-65
2022/02/19 16:29:17;;;;;;;106.63;69.53;;;;;;;12.66;70.76;100328.47;5067334;28;20410;-65
2022/02/19 16:31:42;;;;;;;66.53;38.38;;;;;;;12.31;69.05;100321.91;5067002;28;20025;-65
2022/02/19 16:34:08;;;;;;;62.15;39.85;;;;;;;12.53;66.58;100299.13;5066929;28;20032;-65
2022/02/19 16:36:34;;;;;;;64.82;39.45;;;;;;;12.20;70.75;100327.28;5066772;28;20032;-65
2022/02/19 16:39:00;;;;;;;58.17;38.38;;;;;;;12.01;72.22;100297.28;5066947;28;20562;-65
2022/02/19 16:41:26;;;;;;;58.60;37.05;;;;;;;12.25;76.10;100326.34;5066852;28;20036;-65
2022/02/19 16:43:52;;;;;;;63.70;37.47;;;;;;;12.26;75.45;100350.97;5066695;28;20090;-66
2022/02/19 16:46:17;;;;;;;55.55;37.55;;;;;;;12.13;75.37;100343.66;5066750;28;20033;-66
2022/02/19 16:48:43;;;;;;;72.60;43.60;;;;;;;11.70;76.05;100363.56;5065077;28;20059;-66
2022/02/19 16:51:08;;;;;;;54.47;36.88;;;;;;;11.52;75.87;100358.06;5066430;28;20119;-65
2022/02/19 16:53:34;;;;;;;55.78;37.88;;;;;;;11.65;75.11;100365.34;5066611;28;20021;-65
2022/02/19 16:56:01;;;;;;;53.03;37.85;;;;;;;11.42;79.06;100365.09;5064792;28;20090;-66
2022/02/19 16:58:27;;;;;;;57.83;38.55;;;;;;;11.50;78.23;100353.00;5064773;28;20063;-66
2022/02/19 17:00:53;;;;;;;54.22;37.80;;;;;;;11.03;77.43;100326.19;5066136;28;20084;-65
2022/02/19 17:03:18;;;;;;;57.38;38.05;;;;;;;11.21;78.15;100305.38;5063323;28;20021;-65
2022/02/19 17:05:44;;;;;;;61.25;41.03;;;;;;;11.18;77.99;100332.63;5045149;28;20029;-65
2022/02/19 17:08:11;;;;;;;61.80;43.13;;;;;;;10.97;81.41;100354.31;5046442;28;20044;-65
2022/02/19 17:10:37;;;;;;;60.40;42.10;;;;;;;11.32;80.34;100353.47;5045073;28;20336;-65
2022/02/19 17:13:05;;;;;;;67.65;47.83;;;;;;;10.78;81.20;100353.06;5038220;28;20033;-65
2022/02/19 17:15:30;;;;;;;64.97;45.13;;;;;;;10.88;83.19;100349.44;5033010;28;20407;-66
2022/02/19 17:17:56;;;;;;;70.05;45.63;;;;;;;10.76;83.16;100328.53;5032944;28;20507;-65
2022/02/19 17:20:21;;;;;;;86.43;51.92;;;;;;;9.97;83.06;100325.16;5031661;28;20025;-66
2022/02/19 17:22:47;;;;;;;70.38;42.67;;;;;;;10.50;84.17;100305.44;5031814;28;20474;-65